Airfield :
LOGIN :

Register | Disclaimer

   EN    FR    IT 

 










Legend :    VFR   Marginal VFR   IFR   Intensive IFR   Very Intensive IFR
Visi :
Ceiling :
>= 8 km
>= 3000ft
5 to 8 km
1000 to 3000 ft
1500m to 5 km
500 to 1000 ft
800 to 1500m
200 to 500 ft
< 800m
< 200 ft
Symbols :   Thunderstorms  Fog  Heavy snow  Heavy precipitations  Wind > 20 kt
SIGMETs :     Misc.  Thunderstorms  Icing  Turbulence  Mountain Waves  Volcanic Ashes







- Airport Elevation : 681 ft
- IATA code : LBA
- Download approach charts


EGNM - Leeds Bradford

CURRENT METAR :
  • 210950Z 27017KT 9999 SCT010 BKN022 11/08 Q1031

EXPIRED METARs :
  • 210920Z 26012KT 9999 SCT010 BKN022 11/08 Q1031
  • 210850Z 25010KT 220V280 9999 FEW010 BKN014 11/08 Q1031
  • 210820Z 25007KT 200V300 9999 FEW010 BKN015 10/08 Q1031
  • 210750Z 25008KT 190V280 9999 FEW009 BKN012 10/08 Q1030
  • 210720Z 24011KT 220V280 9999 FEW009 BKN012 10/08 Q1030

TAF AMD TAF EGNM
Valid from the 21 at 08:00 until the 22 at 06:00 UTC


210822Z 2108/2206 26010KT 9999 FEW010 BKN016
TEMPO 2108/2112 5000 BR BKN005
PROB40
TEMPO 2112/2124 BKN014
BECMG 2116/2119 20007KT
TEMPO 2200/2206 BKN009
ATIS : +44 113 250 9696 (x2489)
No reported NOTAMs for that airfield.



MET'MAP, your aeronautical weather chart ! - Copyright ORBIFLY December 2007 - Disclaimer

ORBIFLY MET'MAP TEAM :

Programming & Development : Alexandra Zaïnal
Concept & Development : Baudouin d'Aumeries
Co-Development & Prog : Marc-Olivier Méhu
Technical & hardware support : Manuel Goepfert

Contact : metmap@orbifly.com




SOURCES & CREDITS :

   NOAA